E38

Alpine-Casparis Municipal Airport

Alpine, Texas, USA
METAR KE38 210335Z AUTO 07005KT 10SM CLR 18/12 A3004 RMK AO2 T01770115
Observed Flight Rules
Apr-21 @ 03:35 UTC (11 minutes ago) Visual Flight Rules
Wind Visibility Clouds
70° at 5 knots 10 miles
  • Clear skies
Temperatures Readings
Current 18°C / 64°F
Dewpoint 12°C / 54°F
Humidity 68%
Altimeter 30.04" Hg
Pressure 1017 hPa
Elevation 1376
METAR KE38 210335Z AUTO 07005KT 10SM CLR 18/12 A3004 RMK AO2 T01770115
Observed Flight Rules
Apr-21 @ 03:35 UTC
(11 minutes ago)
VFR
Wind Visibility
70° at 5 knots 10 miles
Clouds
  • Clear skies
Temperature Dewpoint
18°C / 64°F 12°C / 54°F
Humidity Altimeter Pressure
68% 30.04" Hg 1017 hPa